• Join FlightAware (Why Join?)
  • Login
  • US Flag 
03:18PM EST


 

Airport Tracker/Info


-or-


 

Live Flight TrackerFlight Track Log ✈ SKW4473 ✈ 29-Apr-2013 ✈ KSLC - KHLN

Flight Track Log - Related Links

Times and Time Zones

All times are in EDT time to prevent confusion due to time zone crossing. See the SKW4473 flight status page for this flight to view local times or setup timezone preferences in your user account.

Time Position Orientation Groundspeed Altitude Reporting Facility
EDT Latitude Longitude Course Direction KTS MPH feet Rate Location/Type
01:27PM 40.8061 -111.9653 13° North 185 213 5,000  Level Salt Lake Center
01:28PM 40.8742 -111.9733 355° North 214 246 7,400 1,920 Climbing Salt Lake Center
01:29PM 40.9283 -111.9794 355° North 239 275 9,200 2,160 Climbing Salt Lake Center
01:30PM 41.1909 -111.8447 43° Northeast  Level FlightAware Approximate
01:30PM 41.0019 -111.9642 North 279 321 11,700  Level Salt Lake Center
01:31PM 41.2889 -111.7722 21° North  Level FlightAware Approximate
01:31PM 41.0747 -111.9181 26° Northeast 285 328 13,900  Level Salt Lake Center
01:32PM 41.3863 -111.6941 13° North  Level FlightAware Approximate
01:32PM 41.1686 -111.8608 25° Northeast 303 349 16,000  Level Salt Lake Center
01:33PM 41.2469 -111.8103 26° Northeast 310 357 18,000 1,680 Climbing Salt Lake Center
01:34PM 41.3253 -111.7536 29° Northeast 320 368 19,500 1,500 Climbing Salt Lake Center
01:35PM 41.4069 -111.7017 26° Northeast 324 373 21,100 1,320 Climbing Salt Lake Center
01:36PM 41.4933 -111.6675 17° North 324 373 22,300 1,260 Climbing Salt Lake Center
01:37PM 41.5825 -111.6333 16° North 334 384 23,800 1,260 Climbing Salt Lake Center
01:38PM 41.6722 -111.5975 17° North 337 388 24,900 1,020 Climbing Salt Lake Center
01:39PM 41.7672 -111.5589 17° North 353 406 26,000 1,200 Climbing Salt Lake Center
01:40PM 41.8836 -111.5286 11° North 356 410 27,400 1,260 Climbing Salt Lake Center
01:41PM 41.9803 -111.5053 10° North 354 407 28,600 840 Climbing Salt Lake Center
01:42PM 42.0794 -111.4839 North 360 414 29,200 480 Climbing Salt Lake Center
01:43PM 42.1842 -111.4594 10° North 379 436 29,700 780 Climbing Salt Lake Center
01:44PM 42.2925 -111.4358 North 394 453 30,900 600 Climbing Salt Lake Center
01:45PM 42.3967 -111.4519 353° North 378 435 31,000  Climbing Salt Lake Center
01:46PM 42.5047 -111.4742 351° North 392 451 31,000 360 Level Salt Lake Center
01:47PM 42.6350 -111.4981 352° North 395 455 31,800 480 Climbing Salt Lake Center
01:48PM 42.7456 -111.5194 352° North 394 453 32,000 60 Climbing Salt Lake Center
01:49PM 42.8531 -111.5411 352° North 405 466 32,000  Level Salt Lake Center
01:50PM 42.9811 -111.5650 352° North 412 474 32,000  Level Salt Lake Center
01:51PM 43.0886 -111.5883 351° North 409 471 32,000  Level Salt Lake Center
01:53PM 43.1967 -111.6083 352° North 410 472 32,000  Level Salt Lake Center
01:54PM 43.3231 -111.6331 352° North 409 471 32,000  Level Salt Lake Center
01:55PM 43.4306 -111.6556 351° North 407 468 32,000  Level Salt Lake Center
01:56PM 43.5542 -111.6800 352° North 402 463 32,000  Level Salt Lake Center
01:57PM 43.6617 -111.7014 352° North 405 466 32,000  Level Salt Lake Center
01:58PM 43.7847 -111.7275 351° North 402 463 32,000  Level Salt Lake Center
01:59PM 43.8897 -111.7475 352° North 397 457 32,000  Level Salt Lake Center
02:00PM 44.0122 -111.7731 351° North 397 457 32,000  Level Salt Lake Center
02:01PM 44.1169 -111.7953 351° North 398 458 32,000  Level Salt Lake Center
02:02PM 44.2219 -111.8161 352° North 397 457 32,000  Level Salt Lake Center
02:03PM 44.3439 -111.8433 351° North 396 456 32,000  Level Salt Lake Center
02:04PM 44.4492 -111.8647 352° North 396 456 32,000  Level Salt Lake Center
02:05PM 44.5717 -111.8886 352° North 396 456 32,000  Level Salt Lake Center
02:06PM 44.6747 -111.9117 351° North 391 450 32,000  Level Salt Lake Center
02:07PM 44.7789 -111.9264 354° North 391 450 32,000  Level Salt Lake Center
02:08PM 44.9031 -111.9344 357° North 397 457 32,000  Level Salt Lake Center
02:09PM 45.0097 -111.9439 356° North 401 461 32,000  Level Salt Lake Center
02:10PM 45.1303 -111.9533 357° North 399 459 32,000 -1,020 Level Salt Lake Center
02:11PM 45.2447 -111.9628 357° North 409 471 29,900 -2,040 Descending Salt Lake Center
02:12PM 45.3644 -111.9728 357° North 426 490 27,900 -1,980 Descending Salt Lake Center
02:13PM 45.4847 -111.9828 357° North 429 494 25,900 -2,040 Descending Salt Lake Center
02:14PM 45.6033 -111.9922 357° North 425 489 23,800 -2,040 Descending Salt Lake Center
02:15PM 45.7186 -112.0033 356° North 413 475 21,800 -2,160 Descending Salt Lake Center
02:16PM 45.8406 -112.0136 357° North 365 420 19,400 -2,460 Descending Salt Lake Center
02:17PM 45.9383 -112.0217 357° North 352 405 16,800 -2,460 Descending Salt Lake Center
02:18PM 46.0431 -112.0294 357° North 371 427 14,400 -1,860 Descending Salt Lake Center
02:19PM 46.1378 -112.0375 357° North 348 400 13,000 -660 Descending Salt Lake Center
02:20PM 46.2231 -112.0303 North 325 374 13,100  Climbing Salt Lake Center
02:21PM 46.2744 -111.9289 54° Northeast 324 373 13,100 -360 Level Salt Lake Center
02:22PM 46.2917 -111.7931 80° East 343 395 12,400 -720 Descending Salt Lake Center
02:24PM 46.3938 -111.8543 338° Northwest  Level Estimated
02:31PM 46.6068 -111.9827 337° Northwest  Level Estimated